createdAt,value
2023-03-21T00:12:37.868Z,11.00
2023-03-21T00:27:56.909Z,8.73
2023-03-21T00:43:03.387Z,10.67
2023-03-21T00:58:06.722Z,11.37
2023-03-21T01:13:11.297Z,9.50
2023-03-21T01:28:14.132Z,9.00
2023-03-21T01:43:29.515Z,8.90
2023-03-21T01:58:35.107Z,7.00
2023-03-21T02:14:06.107Z,6.60
2023-03-21T02:29:43.024Z,6.27
2023-03-21T02:44:58.808Z,7.03
2023-03-21T03:00:16.283Z,9.27
2023-03-21T03:15:41.855Z,8.37
2023-03-21T03:31:01.160Z,6.63
2023-03-21T03:46:25.369Z,9.03
2023-03-21T04:01:29.191Z,6.73
2023-03-21T04:16:35.631Z,4.70
2023-03-21T04:31:41.522Z,6.63
2023-03-21T04:46:47.602Z,8.67
2023-03-21T05:01:51.710Z,8.33
2023-03-21T05:16:59.556Z,7.30
2023-03-21T05:32:03.301Z,11.03
2023-03-21T05:47:06.836Z,8.03
2023-03-21T06:02:17.839Z,5.27
2023-03-21T06:17:21.117Z,8.13
2023-03-21T06:32:29.477Z,6.17
2023-03-21T06:47:37.816Z,3.30
2023-03-21T07:02:46.568Z,6.20
2023-03-21T07:17:54.493Z,4.93
2023-03-21T07:32:57.464Z,5.17
2023-03-21T07:48:01.282Z,6.37
2023-03-21T08:03:04.410Z,4.47
2023-03-21T08:18:07.063Z,4.03
2023-03-21T08:33:09.955Z,3.53
2023-03-21T08:48:12.967Z,5.13
2023-03-21T09:03:16.087Z,4.80
2023-03-21T09:18:22.561Z,5.10
2023-03-21T09:33:25.756Z,6.40
2023-03-21T09:48:57.433Z,4.73
2023-03-21T10:04:04.815Z,4.40
2023-03-21T10:19:14.662Z,8.17
2023-03-21T10:34:31.110Z,5.13
2023-03-21T10:49:40.545Z,3.43
2023-03-21T11:04:54.894Z,3.47
2023-03-21T11:20:00.161Z,3.67
2023-03-21T11:35:23.695Z,5.57
2023-03-21T11:50:34.359Z,5.87
2023-03-21T12:05:43.629Z,4.07
2023-03-21T12:21:08.162Z,5.33
2023-03-21T12:36:24.982Z,4.07
2023-03-21T12:51:35.960Z,2.93
2023-03-21T13:06:39.919Z,2.80
2023-03-21T13:22:09.988Z,3.37
2023-03-21T13:37:18.112Z,3.03
2023-03-21T13:52:26.168Z,2.60
2023-03-21T14:07:31.653Z,2.50
2023-03-21T14:22:34.338Z,2.50
2023-03-21T14:37:44.858Z,2.40
2023-03-21T14:52:48.971Z,2.73
2023-03-21T15:08:06.877Z,2.20
2023-03-21T15:23:15.675Z,2.30
2023-03-21T15:38:36.475Z,2.33
2023-03-21T15:53:43.882Z,2.47
2023-03-21T16:08:49.093Z,2.93
2023-03-21T16:23:51.676Z,2.47
2023-03-21T16:38:55.292Z,1.93
2023-03-21T16:53:58.306Z,2.93
2023-03-21T17:09:01.586Z,4.27
2023-03-21T17:24:04.304Z,2.40
2023-03-21T17:39:12.678Z,4.40
2023-03-21T17:54:15.290Z,3.50
2023-03-21T18:09:21.574Z,4.63
2023-03-21T18:24:24.292Z,3.93
2023-03-21T18:39:26.848Z,4.33
2023-03-21T18:54:30.282Z,3.80
2023-03-21T19:09:54.761Z,3.70
2023-03-21T19:24:56.626Z,4.47
2023-03-21T19:40:00.697Z,7.17
2023-03-21T19:55:05.500Z,5.73
2023-03-21T20:10:09.930Z,4.63
2023-03-21T20:25:13.426Z,4.93
2023-03-21T20:40:18.559Z,4.17
2023-03-21T20:55:21.671Z,6.00
2023-03-21T21:10:25.901Z,6.50
2023-03-21T21:25:31.809Z,6.83
2023-03-21T21:40:34.857Z,6.83
2023-03-21T21:55:38.025Z,6.80
2023-03-21T22:10:41.668Z,6.70
2023-03-21T22:25:50.939Z,6.37
2023-03-21T22:40:59.159Z,7.30
2023-03-21T22:56:01.977Z,6.97
2023-03-21T23:11:09.085Z,6.30
2023-03-21T23:26:12.380Z,6.30
2023-03-21T23:41:17.460Z,7.90
2023-03-21T23:56:22.994Z,6.23
